Los Angeles, California
Traffic Map
Current Weather Conditions
Los Angeles, California
Clear
Clear
26°
Feels Like: 27°
Wind Chill: 26° Ceiling: Unl
Heat Index: 27° Visibility: 10mi
Dew Point: 16° Wind: 0mph
Humidity: 52% Direction: ° ()
Pressure: 29.95in Gusts: 0mph
Raw Report DataKCQT 021847Z AUTO 00000KT 10SM CLR 26/16 A2995 RMK AO2 SLP140 T02610156
Traffic Incident Summary
Active as of:
Severity:
Category:
InformationThere was an issue retrieving the traffic information for this location. Please try a different location or try again shortly.
Advertisements
Track Severe Weather on mobile